Time;durP1;ratioP1;P1;durP2;ratioP2;P2;SDS_P1;SDS_P2;PMS_P1;PMS_P2;Temp;Humidity;BMP_temperature;BMP_pressure;BME280_temperature;BME280_humidity;BME280_pressure;Samples;Min_cycle;Max_cycle;Signal;HPM_P1;HPM_P2
2022/07/26 00:01:29;;;;;;;3.10;1.43;;;21.60;99.90;;;;;;4996596;28;20217;-81
2022/07/26 00:03:55;;;;;;;1.63;1.27;;;21.60;99.90;;;;;;4996351;28;20206;-81
2022/07/26 00:06:20;;;;;;;2.47;1.20;;;21.70;99.90;;;;;;4996010;28;20202;-81
2022/07/26 00:08:46;;;;;;;4.40;1.50;;;21.70;99.90;;;;;;4995294;28;20222;-81
2022/07/26 00:11:12;;;;;;;5.20;1.20;;;21.60;99.90;;;;;;4992712;28;20250;-81
2022/07/26 00:13:38;;;;;;;5.33;1.40;;;21.50;99.90;;;;;;4996773;28;20438;-80
2022/07/26 00:16:04;;;;;;;4.23;2.17;;;21.40;99.90;;;;;;4995455;28;20186;-81
2022/07/26 00:18:30;;;;;;;1.50;1.37;;;21.40;99.90;;;;;;4989825;28;20459;-81
2022/07/26 00:20:55;;;;;;;2.90;1.57;;;21.40;99.90;;;;;;4997703;28;20895;-81
2022/07/26 00:23:21;;;;;;;7.23;1.50;;;21.40;99.90;;;;;;4992484;28;20279;-81
2022/07/26 00:25:47;;;;;;;1.57;1.17;;;21.40;99.90;;;;;;4995465;28;20190;-81
2022/07/26 00:28:12;;;;;;;2.93;1.70;;;21.40;99.90;;;;;;4989262;28;20888;-81
2022/07/26 00:30:38;;;;;;;2.00;1.30;;;21.50;99.90;;;;;;4995054;28;20238;-80
2022/07/26 00:33:05;;;;;;;4.80;2.50;;;21.50;99.90;;;;;;4996146;28;20192;-80
2022/07/26 00:35:31;;;;;;;2.30;1.30;;;21.60;99.90;;;;;;5009598;28;20508;-81
2022/07/26 00:37:57;;;;;;;3.67;1.27;;;21.70;99.90;;;;;;4995797;28;20435;-81
2022/07/26 00:40:23;;;;;;;2.40;1.43;;;21.70;99.90;;;;;;4991311;28;20857;-80
2022/07/26 00:42:48;;;;;;;3.90;1.70;;;21.60;99.90;;;;;;4996289;28;20438;-81
2022/07/26 00:45:14;;;;;;;3.27;1.40;;;21.50;99.90;;;;;;5008324;28;20675;-80
2022/07/26 00:47:41;;;;;;;2.60;1.73;;;21.40;99.90;;;;;;4990764;28;20294;-81
2022/07/26 00:50:09;;;;;;;2.93;1.70;;;21.40;99.90;;;;;;4984003;28;20424;-81
2022/07/26 00:52:35;;;;;;;2.23;1.50;;;21.40;99.90;;;;;;4995513;28;20438;-81
2022/07/26 00:55:01;;;;;;;2.80;1.57;;;21.30;99.90;;;;;;4991570;28;20831;-81
2022/07/26 00:57:27;;;;;;;4.73;1.80;;;21.30;99.90;;;;;;4990584;28;20197;-81
2022/07/26 00:59:53;;;;;;;3.67;2.17;;;21.20;99.90;;;;;;4991149;28;20469;-80
2022/07/26 01:02:18;;;;;;;3.57;1.70;;;21.10;99.90;;;;;;4993774;28;20941;-80
2022/07/26 01:04:44;;;;;;;6.47;2.13;;;21.00;99.90;;;;;;4992110;28;20238;-81
2022/07/26 01:07:11;;;;;;;3.30;1.87;;;21.00;99.90;;;;;;4987564;28;20184;-81
2022/07/26 01:09:38;;;;;;;6.07;1.77;;;20.90;99.90;;;;;;4990111;28;20575;-81
2022/07/26 01:12:03;;;;;;;3.60;1.77;;;20.70;99.90;;;;;;5048447;22;20950;-82
2022/07/26 01:14:29;;;;;;;5.07;2.10;;;20.70;99.90;;;;;;5013489;28;20532;-83
2022/07/26 01:16:55;;;;;;;9.17;2.10;;;20.70;99.90;;;;;;5013443;28;20944;-83
2022/07/26 01:19:21;;;;;;;5.60;1.80;;;20.70;99.90;;;;;;5014635;28;20235;-83
2022/07/26 01:21:47;;;;;;;6.60;2.10;;;20.70;99.90;;;;;;5014266;28;20214;-83
2022/07/26 01:24:13;;;;;;;5.40;2.20;;;20.60;99.90;;;;;;5015648;28;20448;-82
2022/07/26 01:26:39;;;;;;;2.07;1.50;;;20.40;99.90;;;;;;5002284;28;20424;-82
2022/07/26 01:29:04;;;;;;;8.37;2.17;;;20.30;99.90;;;;;;5006563;28;20213;-82
2022/07/26 01:31:30;;;;;;;4.60;2.13;;;20.30;99.90;;;;;;5012970;28;20363;-83
2022/07/26 01:33:55;;;;;;;4.20;1.60;;;20.30;99.90;;;;;;5015172;28;20186;-82
2022/07/26 01:36:21;;;;;;;3.70;1.70;;;20.30;99.90;;;;;;5016335;28;20182;-82
2022/07/26 01:38:47;;;;;;;9.73;1.90;;;20.10;99.90;;;;;;5019755;28;20192;-83
2022/07/26 01:41:12;;;;;;;2.50;1.70;;;20.00;99.90;;;;;;5018571;28;20272;-82
2022/07/26 01:43:38;;;;;;;2.90;1.40;;;20.00;99.90;;;;;;5017792;28;20200;-82
2022/07/26 01:46:06;;;;;;;3.00;1.70;;;20.00;99.90;;;;;;5017221;28;21014;-80
2022/07/26 01:48:31;;;;;;;5.07;2.13;;;20.10;99.90;;;;;;5013855;28;20217;-82
2022/07/26 01:50:57;;;;;;;3.07;1.53;;;20.00;99.90;;;;;;5013831;28;20479;-82
2022/07/26 01:53:22;;;;;;;6.70;1.60;;;20.10;99.90;;;;;;5018236;28;20182;-83
2022/07/26 01:55:48;;;;;;;7.50;2.80;;;20.30;99.90;;;;;;5015009;28;20194;-83
2022/07/26 01:58:13;;;;;;;8.47;1.90;;;20.30;99.90;;;;;;5016455;28;20587;-82
2022/07/26 02:00:39;;;;;;;4.97;1.60;;;20.30;99.90;;;;;;5012435;28;20218;-83
2022/07/26 02:03:05;;;;;;;7.40;2.60;;;20.30;99.90;;;;;;5011080;28;20218;-82
2022/07/26 02:05:30;;;;;;;5.53;1.87;;;20.30;99.90;;;;;;5014457;28;20193;-82
2022/07/26 02:07:57;;;;;;;14.23;2.57;;;20.20;99.90;;;;;;5016201;28;20600;-82
2022/07/26 02:10:22;;;;;;;2.13;1.30;;;20.20;99.90;;;;;;5014706;28;20184;-83
2022/07/26 02:12:48;;;;;;;3.23;1.60;;;20.20;99.90;;;;;;5016429;28;21039;-82
2022/07/26 02:15:14;;;;;;;6.53;1.67;;;20.30;99.90;;;;;;5015015;28;20185;-83
2022/07/26 02:17:40;;;;;;;6.17;2.07;;;20.30;99.90;;;;;;5015489;28;20234;-82
2022/07/26 02:20:07;;;;;;;3.87;1.70;;;20.10;99.90;;;;;;5016676;28;20436;-83
2022/07/26 02:22:32;;;;;;;6.60;2.23;;;20.00;99.90;;;;;;5012380;28;20259;-83
2022/07/26 02:24:58;;;;;;;5.00;2.70;;;19.80;99.90;;;;;;5015869;28;20439;-83
2022/07/26 02:27:23;;;;;;;3.57;2.13;;;19.60;1.00;;;;;;5013354;28;20270;-82
2022/07/26 02:29:49;;;;;;;3.80;1.53;;;19.60;1.00;;;;;;5010961;28;20196;-83
2022/07/26 02:32:14;;;;;;;4.47;2.23;;;19.60;1.00;;;;;;5014970;28;20209;-82
2022/07/26 02:34:40;;;;;;;4.93;2.33;;;19.60;1.00;;;;;;5012707;28;20222;-83
2022/07/26 02:37:06;;;;;;;6.37;1.80;;;19.60;1.00;;;;;;5016101;28;20198;-83
2022/07/26 02:39:31;;;;;;;7.17;2.20;;;19.60;1.00;;;;;;5015931;28;20192;-82
2022/07/26 02:41:59;;;;;;;8.20;2.47;;;19.60;1.00;;;;;;5014774;28;20296;-83
2022/07/26 02:44:26;;;;;;;10.23;2.63;;;19.50;1.00;;;;;;5017445;28;20196;-82
2022/07/26 02:46:52;;;;;;;5.23;1.90;;;19.40;1.00;;;;;;5016061;28;21183;-83
2022/07/26 02:49:19;;;;;;;4.07;1.63;;;19.40;1.00;;;;;;5011089;28;20846;-82
2022/07/26 02:51:45;;;;;;;8.33;2.93;;;19.40;48.60;;;;;;5011464;28;20535;-81
2022/07/26 02:54:11;;;;;;;5.97;1.97;;;19.40;85.70;;;;;;5016103;28;20539;-83
2022/07/26 02:56:37;;;;;;;5.77;2.33;;;19.40;99.90;;;;;;5015385;28;20497;-82
2022/07/26 02:59:03;;;;;;;7.90;2.17;;;19.40;99.90;;;;;;5016272;28;20483;-83
2022/07/26 03:01:29;;;;;;;3.50;1.50;;;19.50;99.90;;;;;;5010115;28;20468;-83
2022/07/26 03:03:54;;;;;;;3.87;1.90;;;19.60;81.80;;;;;;5017953;28;20446;-82
2022/07/26 03:06:20;;;;;;;8.00;2.00;;;19.70;27.80;;;;;;5014203;28;20357;-83
2022/07/26 03:08:46;;;;;;;9.50;2.53;;;19.80;1.00;;;;;;5015534;28;20207;-82
2022/07/26 03:11:11;;;;;;;4.27;1.93;;;19.90;1.00;;;;;;5010361;28;20216;-82
2022/07/26 03:13:37;;;;;;;6.40;2.10;;;19.90;1.00;;;;;;5016403;28;20441;-83
2022/07/26 03:16:03;;;;;;;15.67;2.47;;;19.90;1.00;;;;;;5016085;28;20187;-82
2022/07/26 03:18:28;;;;;;;3.73;1.80;;;19.90;1.00;;;;;;5015764;28;20654;-82
2022/07/26 03:20:54;;;;;;;4.13;2.10;;;19.80;1.00;;;;;;5016514;28;20223;-84
2022/07/26 03:23:20;;;;;;;10.90;2.50;;;19.70;1.00;;;;;;5015969;28;20319;-83
2022/07/26 03:25:45;;;;;;;2.30;1.60;;;19.80;1.00;;;;;;5013051;28;20655;-82
2022/07/26 03:28:11;;;;;;;10.57;2.77;;;19.70;2.00;;;;;;5015162;28;20216;-82
2022/07/26 03:30:36;;;;;;;14.53;2.30;;;19.70;24.80;;;;;;5015194;28;20218;-81
2022/07/26 03:33:02;;;;;;;4.40;2.30;;;19.50;99.90;;;;;;5012684;28;20200;-83
2022/07/26 03:35:27;;;;;;;16.70;3.00;;;19.50;99.90;;;;;;5016732;28;20293;-82
2022/07/26 03:37:53;;;;;;;8.23;2.63;;;19.50;99.90;;;;;;5014955;28;20224;-83
2022/07/26 03:40:19;;;;;;;4.77;1.90;;;19.50;99.90;;;;;;5013556;28;20194;-82
2022/07/26 03:42:46;;;;;;;7.90;2.70;;;19.30;99.90;;;;;;5015223;28;20201;-82
2022/07/26 03:45:12;;;;;;;6.37;2.70;;;19.20;1.00;;;;;;5013916;28;20817;-81
2022/07/26 03:47:37;;;;;;;6.80;2.33;;;19.20;1.00;;;;;;5009973;28;20467;-82
2022/07/26 03:50:04;;;;;;;6.93;2.40;;;19.30;1.00;;;;;;5015632;28;20441;-83
2022/07/26 03:52:30;;;;;;;6.60;2.30;;;19.40;1.00;;;;;;5016850;28;20237;-82
2022/07/26 03:54:55;;;;;;;9.97;2.77;;;19.40;1.00;;;;;;5000660;28;20957;-82
2022/07/26 03:57:21;;;;;;;7.60;2.20;;;19.50;1.00;;;;;;5012768;28;20186;-82
2022/07/26 03:59:46;;;;;;;8.17;2.50;;;19.40;1.00;;;;;;5010759;28;20189;-82
2022/07/26 04:02:12;;;;;;;7.50;2.27;;;19.50;1.00;;;;;;5014809;28;20202;-83
2022/07/26 04:04:37;;;;;;;5.00;2.00;;;19.60;1.00;;;;;;5014959;28;20289;-83
2022/07/26 04:07:03;;;;;;;12.60;3.57;;;19.70;1.00;;;;;;5007538;28;20305;-81
2022/07/26 04:09:29;;;;;;;5.20;2.73;;;19.70;1.00;;;;;;5013219;28;20238;-81
2022/07/26 04:11:54;;;;;;;11.80;3.00;;;19.70;1.00;;;;;;5013491;28;20229;-82
2022/07/26 04:14:20;;;;;;;6.27;2.47;;;19.70;1.00;;;;;;5016089;28;20195;-83
2022/07/26 04:16:46;;;;;;;7.00;2.40;;;19.80;1.00;;;;;;5012113;28;20574;-81
2022/07/26 04:19:11;;;;;;;9.20;3.23;;;19.80;1.00;;;;;;5014407;28;20184;-83
2022/07/26 04:21:37;;;;;;;3.43;2.10;;;19.80;1.00;;;;;;5014509;28;20463;-82
2022/07/26 04:24:03;;;;;;;4.80;2.33;;;19.70;1.00;;;;;;5014655;28;20193;-83
2022/07/26 04:26:29;;;;;;;6.10;2.90;;;19.80;1.00;;;;;;5014057;28;20218;-82
2022/07/26 04:28:55;;;;;;;4.90;2.53;;;19.80;1.00;;;;;;5015144;28;20229;-83
2022/07/26 04:31:21;;;;;;;6.17;2.97;;;19.90;1.00;;;;;;5013203;28;20461;-82
2022/07/26 04:33:46;;;;;;;6.80;2.30;;;19.90;1.00;;;;;;5014962;28;20441;-83
2022/07/26 04:36:12;;;;;;;5.10;2.40;;;19.90;1.00;;;;;;5013382;28;20186;-82
2022/07/26 04:38:38;;;;;;;5.83;2.77;;;19.80;1.00;;;;;;5009784;28;20209;-83
2022/07/26 04:41:03;;;;;;;14.17;3.30;;;19.80;1.00;;;;;;5013985;28;20636;-83
2022/07/26 04:43:29;;;;;;;10.00;2.80;;;19.80;1.00;;;;;;5008296;28;20210;-82
2022/07/26 04:45:56;;;;;;;7.63;3.10;;;19.90;1.00;;;;;;5014853;28;20313;-82
2022/07/26 04:48:22;;;;;;;10.50;3.70;;;19.90;1.00;;;;;;5011077;28;20212;-83
2022/07/26 04:50:48;;;;;;;10.67;2.63;;;19.90;1.00;;;;;;5012305;28;20466;-82
2022/07/26 04:53:14;;;;;;;7.40;2.80;;;19.90;1.00;;;;;;5014508;28;20422;-83
2022/07/26 04:55:40;;;;;;;3.80;2.27;;;20.00;1.00;;;;;;5012688;28;20241;-83
2022/07/26 04:58:05;;;;;;;10.27;2.57;;;20.00;1.00;;;;;;5012456;28;20532;-82
2022/07/26 05:00:31;;;;;;;3.60;2.37;;;20.10;1.00;;;;;;5013347;28;20495;-83
2022/07/26 05:02:58;;;;;;;5.07;2.03;;;20.10;99.90;;;;;;5009833;28;20197;-83
2022/07/26 05:05:27;;;;;;;12.60;3.27;;;20.20;99.90;;;;;;5008095;28;20198;-83
2022/07/26 05:07:55;;;;;;;7.67;2.90;;;20.20;99.90;;;;;;5010502;28;21073;-84
2022/07/26 05:10:26;;;;;;;12.87;2.93;;;20.10;1.00;;;;;;5008038;28;20449;-84
2022/07/26 05:12:52;;;;;;;11.43;3.10;;;20.00;1.00;;;;;;5010930;28;20494;-84
2022/07/26 05:15:18;;;;;;;9.67;3.00;;;20.00;1.00;;;;;;5008864;28;20429;-83
2022/07/26 05:17:43;;;;;;;9.53;2.63;;;20.00;1.00;;;;;;5010152;28;20189;-84
2022/07/26 05:20:11;;;;;;;6.90;3.50;;;19.90;1.00;;;;;;5011874;28;20185;-84
2022/07/26 05:22:37;;;;;;;12.10;3.63;;;19.90;1.00;;;;;;5011527;28;20249;-84
2022/07/26 05:25:04;;;;;;;7.77;2.50;;;19.90;1.00;;;;;;5008746;28;20447;-83
2022/07/26 05:27:30;;;;;;;11.30;3.60;;;19.90;76.70;;;;;;5011306;28;20560;-84
2022/07/26 05:29:56;;;;;;;8.90;3.17;;;19.90;99.90;;;;;;5012407;28;20432;-84
2022/07/26 05:32:23;;;;;;;9.40;3.13;;;19.90;99.90;;;;;;5009593;28;20216;-84
2022/07/26 05:34:49;;;;;;;13.37;4.00;;;19.90;99.90;;;;;;5010022;28;20185;-84
2022/07/26 05:37:14;;;;;;;9.63;3.10;;;19.90;99.90;;;;;;5008683;28;20425;-84
2022/07/26 05:39:40;;;;;;;7.57;2.70;;;19.90;99.90;;;;;;5011747;28;20962;-84
2022/07/26 05:42:05;;;;;;;13.30;4.20;;;20.00;99.90;;;;;;5005598;28;20348;-85
2022/07/26 05:44:31;;;;;;;9.80;3.57;;;20.10;99.90;;;;;;5009677;28;20191;-83
2022/07/26 05:46:57;;;;;;;9.03;3.57;;;20.10;99.90;;;;;;5009478;28;20190;-85
2022/07/26 05:49:22;;;;;;;11.07;3.13;;;20.10;99.90;;;;;;5001549;28;20739;-83
2022/07/26 05:51:48;;;;;;;10.80;4.27;;;20.20;99.90;;;;;;5014749;28;20209;-84
2022/07/26 05:54:13;;;;;;;11.00;3.37;;;20.20;99.90;;;;;;5015826;28;20188;-82
2022/07/26 05:56:39;;;;;;;13.20;3.70;;;20.30;99.90;;;;;;5010889;28;20210;-81
2022/07/26 05:59:04;;;;;;;10.03;3.20;;;20.40;99.20;;;;;;5013709;28;20236;-83
2022/07/26 06:01:31;;;;;;;12.50;3.37;;;20.40;1.00;;;;;;5010856;28;20214;-84
2022/07/26 06:03:58;;;;;;;9.10;4.00;;;20.50;1.00;;;;;;5010419;28;20188;-84
2022/07/26 06:06:24;;;;;;;12.47;3.77;;;20.60;1.00;;;;;;5006319;28;20451;-84
2022/07/26 06:08:49;;;;;;;9.50;2.87;;;20.60;1.00;;;;;;5009849;28;20488;-84
2022/07/26 06:11:15;;;;;;;6.50;2.73;;;20.60;1.00;;;;;;5006480;28;20472;-82
2022/07/26 06:13:40;;;;;;;13.20;3.27;;;20.70;1.00;;;;;;5010876;28;20202;-83
2022/07/26 06:16:06;;;;;;;10.70;3.53;;;20.70;1.00;;;;;;5011198;28;20648;-83
2022/07/26 06:18:32;;;;;;;12.93;3.83;;;20.70;1.00;;;;;;5012205;28;20193;-83
2022/07/26 06:20:57;;;;;;;10.00;4.20;;;20.70;1.00;;;;;;5017641;28;20684;-85
2022/07/26 06:23:23;;;;;;;10.10;3.90;;;20.70;1.00;;;;;;5020562;28;20197;-84
2022/07/26 06:25:48;;;;;;;12.60;4.17;;;20.70;1.00;;;;;;5015273;28;20261;-84
2022/07/26 06:28:14;;;;;;;12.30;5.10;;;20.60;1.00;;;;;;5017173;28;20208;-83
2022/07/26 06:30:42;;;;;;;9.27;4.33;;;20.50;31.20;;;;;;5016948;28;20636;-83
2022/07/26 06:33:08;;;;;;;13.87;5.17;;;20.50;79.50;;;;;;5009899;28;20589;-83
2022/07/26 06:35:35;;;;;;;11.57;5.47;;;20.50;99.90;;;;;;5014572;28;20445;-83
2022/07/26 06:38:01;;;;;;;15.43;6.27;;;20.50;99.90;;;;;;5014692;28;20787;-84
2022/07/26 06:40:26;;;;;;;10.13;5.40;;;20.50;99.90;;;;;;5011392;28;20441;-84
2022/07/26 06:42:52;;;;;;;16.67;5.17;;;20.50;99.90;;;;;;5003921;28;21082;-83
2022/07/26 06:45:18;;;;;;;17.30;5.53;;;20.50;99.90;;;;;;5011448;28;20209;-84
2022/07/26 06:47:43;;;;;;;13.43;5.77;;;20.60;99.90;;;;;;5002152;28;20457;-84
2022/07/26 06:50:10;;;;;;;13.37;6.00;;;20.60;99.90;;;;;;5011521;28;20565;-84
2022/07/26 06:52:35;;;;;;;17.30;5.53;;;20.70;99.90;;;;;;5004716;28;20769;-84
2022/07/26 06:55:01;;;;;;;13.47;5.90;;;20.80;99.90;;;;;;5007037;28;20438;-84
2022/07/26 06:57:27;;;;;;;12.50;5.70;;;20.80;73.10;;;;;;5011865;28;20210;-84
2022/07/26 06:59:53;;;;;;;15.93;6.10;;;20.90;1.00;;;;;;5007767;28;20979;-84
2022/07/26 07:02:18;;;;;;;13.70;6.37;;;21.10;1.00;;;;;;5017957;28;20199;-84
2022/07/26 07:04:44;;;;;;;10.13;5.90;;;21.30;1.00;;;;;;5017884;28;20219;-84
2022/07/26 07:07:12;;;;;;;14.90;7.10;;;21.50;1.00;;;;;;5020594;28;20195;-85
2022/07/26 07:09:38;;;;;;;16.03;7.07;;;21.70;99.90;;;;;;5018973;28;20208;-84
2022/07/26 07:12:05;;;;;;;14.00;7.07;;;21.90;99.90;;;;;;5032320;23;20512;-81
2022/07/26 07:14:31;;;;;;;14.50;6.33;;;22.00;99.90;;;;;;4996230;28;20258;-80
2022/07/26 07:16:57;;;;;;;14.43;6.87;;;22.10;99.90;;;;;;4996306;28;20434;-80
2022/07/26 07:19:23;;;;;;;20.10;7.13;;;22.20;78.20;;;;;;5004202;28;20431;-80
2022/07/26 07:21:49;;;;;;;14.17;6.73;;;22.40;3.90;;;;;;4993798;28;20214;-80
2022/07/26 07:24:16;;;;;;;18.07;7.47;;;22.50;1.00;;;;;;4996693;28;20412;-80
2022/07/26 07:26:41;;;;;;;15.03;7.30;;;22.70;1.00;;;;;;4994649;28;20838;-80
2022/07/26 07:29:11;;;;;;;13.60;8.97;;;22.80;1.00;;;;;;4991403;28;20467;-80
2022/07/26 07:31:37;;;;;;;14.30;7.83;;;22.90;1.00;;;;;;4991877;28;20836;-80
2022/07/26 07:34:03;;;;;;;11.70;7.90;;;22.70;1.00;;;;;;4987619;28;20438;-80
2022/07/26 07:36:28;;;;;;;12.03;7.10;;;22.70;1.00;;;;;;4992810;28;20309;-80
2022/07/26 07:38:54;;;;;;;14.77;6.93;;;23.10;1.00;;;;;;4990693;28;20812;-80
2022/07/26 07:41:19;;;;;;;10.10;6.50;;;24.70;1.00;;;;;;4989298;28;20655;-80
2022/07/26 07:43:45;;;;;;;13.00;8.20;;;27.70;99.90;;;;;;4991240;28;20250;-80
2022/07/26 07:46:11;;;;;;;17.20;7.47;;;27.70;99.90;;;;;;4992918;28;20314;-81
2022/07/26 07:48:39;;;;;;;15.13;7.70;;;27.40;99.90;;;;;;4987045;28;20207;-81
2022/07/26 07:51:08;;;;;;;15.60;6.67;;;28.30;99.90;;;;;;4991372;28;20440;-81
2022/07/26 07:53:34;;;;;;;15.03;6.97;;;30.50;99.90;;;;;;4991924;28;20603;-81
2022/07/26 07:55:59;;;;;;;10.87;7.10;;;30.30;99.90;;;;;;4993669;28;20423;-81
2022/07/26 07:58:25;;;;;;;15.17;6.63;;;31.40;99.90;;;;;;5003171;28;20191;-81
2022/07/26 08:00:51;;;;;;;7.20;4.47;;;34.40;99.90;;;;;;4993921;28;20191;-82
2022/07/26 08:03:17;;;;;;;12.87;5.80;;;36.00;99.90;;;;;;4991753;28;20203;-81
2022/07/26 08:05:42;;;;;;;9.83;5.13;;;37.00;99.90;;;;;;4990855;28;20196;-81
2022/07/26 08:08:08;;;;;;;10.77;6.57;;;35.60;99.90;;;;;;4991871;28;20249;-82
2022/07/26 08:10:34;;;;;;;13.53;6.37;;;34.00;99.90;;;;;;4992710;28;20715;-81
2022/07/26 08:12:59;;;;;;;11.40;6.00;;;32.60;99.90;;;;;;4991114;28;20218;-82
2022/07/26 08:15:26;;;;;;;12.27;6.10;;;31.40;99.90;;;;;;4991656;28;20200;-82
2022/07/26 08:17:52;;;;;;;9.20;6.20;;;31.10;99.90;;;;;;4986943;28;20191;-81
2022/07/26 08:20:18;;;;;;;11.93;6.07;;;30.30;99.90;;;;;;4993872;28;20447;-82
2022/07/26 08:22:43;;;;;;;9.17;6.17;;;29.80;99.90;;;;;;4994061;28;20515;-81
2022/07/26 08:25:09;;;;;;;17.93;7.20;;;29.10;99.90;;;;;;4995138;28;20279;-82
2022/07/26 08:27:35;;;;;;;12.83;5.53;;;28.80;99.90;;;;;;4990514;28;20226;-82
2022/07/26 08:30:01;;;;;;;10.57;5.63;;;28.90;99.90;;;;;;4993056;28;20528;-81
2022/07/26 08:32:26;;;;;;;10.60;6.27;;;30.00;99.90;;;;;;4994874;28;20214;-82
2022/07/26 08:34:52;;;;;;;10.77;5.13;;;30.20;99.90;;;;;;4988598;28;20533;-81
2022/07/26 08:37:17;;;;;;;11.47;5.80;;;29.70;99.90;;;;;;4990433;28;20184;-81
2022/07/26 08:39:44;;;;;;;12.83;6.03;;;29.20;99.90;;;;;;4991478;28;20265;-82
2022/07/26 08:42:14;;;;;;;10.23;6.00;;;29.90;99.90;;;;;;4992168;28;20738;-82
2022/07/26 08:44:42;;;;;;;11.87;7.00;;;30.40;99.90;;;;;;4992945;28;20533;-82
2022/07/26 08:47:11;;;;;;;10.50;5.53;;;29.70;99.90;;;;;;4991195;28;21263;-82
2022/07/26 08:49:36;;;;;;;10.90;4.20;;;33.80;99.90;;;;;;4991748;28;20498;-83
2022/07/26 08:52:03;;;;;;;6.10;2.93;;;37.30;99.90;;;;;;4997953;28;20477;-81
2022/07/26 08:54:28;;;;;;;10.90;3.60;;;41.10;99.90;;;;;;4994309;28;20192;-81
2022/07/26 08:56:54;;;;;;;7.47;3.67;;;44.10;98.40;;;;;;4991933;28;20723;-82
2022/07/26 08:59:19;;;;;;;6.90;3.23;;;46.40;94.20;;;;;;4996338;28;20191;-81
2022/07/26 09:01:58;;;;;;;12.63;3.93;;;44.60;78.00;;;;;;4992492;28;20222;-81
2022/07/26 09:04:35;;;;;;;6.10;3.17;;;41.70;59.90;;;;;;4994586;28;20191;-81
2022/07/26 09:07:05;;;;;;;6.90;3.57;;;41.10;57.50;;;;;;5006040;28;20434;-81
2022/07/26 09:09:34;;;;;;;9.50;3.03;;;40.10;52.00;;;;;;4992745;28;20483;-81
2022/07/26 09:12:17;;;;;;;6.90;3.17;;;38.40;46.00;;;;;;4987688;28;20572;-81
2022/07/26 09:14:45;;;;;;;6.40;2.67;;;39.40;48.40;;;;;;4987952;28;20434;-81
2022/07/26 09:17:12;;;;;;;6.30;2.90;;;40.40;49.00;;;;;;4993294;28;20445;-80
2022/07/26 09:19:38;;;;;;;5.67;3.10;;;41.20;47.60;;;;;;4988510;28;20438;-82
2022/07/26 09:22:11;;;;;;;7.83;2.90;;;43.20;48.60;;;;;;4992978;28;20485;-82
2022/07/26 09:24:37;;;;;;;6.97;2.60;;;43.90;45.10;;;;;;4991618;28;20447;-83
2022/07/26 09:27:06;;;;;;;6.13;3.30;;;45.00;43.60;;;;;;4993539;28;20492;-82
2022/07/26 09:29:52;;;;;;;7.07;3.27;;;42.40;33.80;;;;;;4995053;28;20462;-82
2022/07/26 09:32:23;;;;;;;5.37;2.60;;;43.30;34.40;;;;;;4993502;28;20469;-82
2022/07/26 09:34:52;;;;;;;7.87;3.33;;;43.90;32.70;;;;;;4989658;28;21788;-83
2022/07/26 09:37:31;;;;;;;7.77;3.40;;;42.80;29.40;;;;;;4988569;28;20453;-82
2022/07/26 09:40:01;;;;;;;8.73;4.20;;;41.00;25.10;;;;;;4992704;28;20434;-82
2022/07/26 09:42:27;;;;;;;7.87;3.60;;;38.80;22.10;;;;;;4992488;28;20462;-81
2022/07/26 09:44:56;;;;;;;8.27;3.60;;;36.80;21.50;;;;;;4990881;28;20446;-81
2022/07/26 09:47:33;;;;;;;9.80;3.40;;;35.30;20.90;;;;;;4980652;28;20442;-81
2022/07/26 09:50:17;;;;;;;8.97;3.80;;;34.20;20.70;;;;;;4986382;28;20431;-81
2022/07/26 09:53:09;;;;;;;6.17;3.80;;;33.20;21.40;;;;;;4986808;28;20826;-80
2022/07/26 09:55:53;;;;;;;8.47;3.83;;;32.40;22.20;;;;;;4986247;28;20873;-81
2022/07/26 09:58:19;;;;;;;7.60;4.13;;;31.60;23.00;;;;;;4994504;28;20549;-81
2022/07/26 10:00:45;;;;;;;11.27;4.20;;;31.00;24.20;;;;;;4993684;28;20430;-82
2022/07/26 10:03:11;;;;;;;7.73;3.97;;;30.80;25.70;;;;;;4996439;28;20214;-81
2022/07/26 10:05:37;;;;;;;11.67;3.97;;;31.40;29.00;;;;;;4993570;28;20274;-82
2022/07/26 10:08:03;;;;;;;6.60;3.73;;;31.80;31.20;;;;;;4991590;28;20470;-82
2022/07/26 10:10:44;;;;;;;11.20;3.73;;;34.20;39.10;;;;;;4996833;28;20477;-83
2022/07/26 10:13:10;;;;;;;5.73;3.60;;;36.30;42.60;;;;;;4995819;28;20474;-82
2022/07/26 10:15:39;;;;;;;7.73;3.80;;;35.50;39.10;;;;;;4995354;28;20757;-82
2022/07/26 10:18:37;;;;;;;8.37;4.50;;;34.40;35.20;;;;;;4998294;28;20449;-83
2022/07/26 10:21:14;;;;;;;7.17;4.10;;;33.10;31.80;;;;;;4996175;28;20445;-83
2022/07/26 10:23:46;;;;;;;7.87;5.03;;;31.70;30.00;;;;;;5001039;28;20438;-80
2022/07/26 10:26:31;;;;;;;8.17;5.50;;;30.50;30.30;;;;;;4992091;28;20451;-81
2022/07/26 10:29:17;;;;;;;7.40;5.93;;;29.30;31.30;;;;;;4992097;28;20465;-80
2022/07/26 10:31:45;;;;;;;11.93;6.73;;;28.30;34.40;;;;;;4997546;28;20454;-82
2022/07/26 10:34:37;;;;;;;11.53;7.23;;;27.60;36.60;;;;;;4994401;28;20959;-81
2022/07/26 10:37:09;;;;;;;11.10;6.63;;;27.00;38.90;;;;;;4993108;28;20455;-81
2022/07/26 10:39:35;;;;;;;9.47;8.23;;;26.60;42.20;;;;;;4994824;28;20444;-81
2022/07/26 10:42:05;;;;;;;10.17;8.03;;;26.20;46.00;;;;;;4990043;28;20513;-81
2022/07/26 10:44:40;;;;;;;11.13;8.17;;;25.80;49.90;;;;;;4993173;28;20452;-81
2022/07/26 10:47:06;;;;;;;9.83;8.80;;;25.40;55.20;;;;;;4995005;28;20449;-81
2022/07/26 10:49:35;;;;;;;10.33;8.70;;;25.10;63.10;;;;;;4996295;28;20468;-81
2022/07/26 10:52:16;;;;;;;10.33;9.37;;;24.80;73.10;;;;;;4994666;28;20641;-81
2022/07/26 10:55:03;;;;;;;9.43;8.27;;;24.50;90.30;;;;;;4986935;28;20431;-82
2022/07/26 10:57:32;;;;;;;9.07;8.27;;;24.40;98.00;;;;;;4984274;28;20517;-81
2022/07/26 10:59:59;;;;;;;9.20;8.50;;;24.30;99.90;;;;;;4993864;28;20433;-81
2022/07/26 11:02:31;;;;;;;12.00;8.20;;;24.30;99.90;;;;;;4993217;28;20646;-82
2022/07/26 11:05:11;;;;;;;11.87;7.60;;;24.30;99.90;;;;;;4993713;28;20541;-81
2022/07/26 11:07:50;;;;;;;11.73;7.70;;;24.60;99.90;;;;;;4990515;28;20505;-82
2022/07/26 11:10:15;;;;;;;9.23;6.97;;;25.10;99.90;;;;;;4996148;28;20446;-81
2022/07/26 11:12:41;;;;;;;11.93;7.60;;;25.70;99.90;;;;;;4998405;28;20470;-82
2022/07/26 11:15:17;;;;;;;12.33;7.20;;;26.20;99.90;;;;;;4996247;28;20489;-82
2022/07/26 11:17:43;;;;;;;9.77;6.60;;;26.80;99.90;;;;;;4994307;28;20278;-82
2022/07/26 11:20:09;;;;;;;7.37;6.57;;;27.70;99.90;;;;;;4994357;28;20466;-82
2022/07/26 11:22:35;;;;;;;12.37;6.80;;;28.50;99.90;;;;;;5000702;28;20632;-82
2022/07/26 11:25:02;;;;;;;6.37;5.50;;;30.50;99.90;;;;;;4996060;28;20523;-83
2022/07/26 11:27:27;;;;;;;9.30;6.10;;;31.90;99.90;;;;;;4992046;28;20706;-83
2022/07/26 11:29:53;;;;;;;7.07;5.30;;;32.00;99.90;;;;;;4994285;28;20573;-82
2022/07/26 11:32:24;;;;;;;7.13;6.40;;;32.50;96.30;;;;;;4993337;28;20214;-83
2022/07/26 11:35:00;;;;;;;6.73;6.03;;;31.90;92.20;;;;;;4999874;28;20747;-83
2022/07/26 11:37:26;;;;;;;6.73;5.93;;;31.60;90.10;;;;;;5008098;28;20504;-83
2022/07/26 11:39:52;;;;;;;6.90;5.60;;;31.90;89.60;;;;;;4992275;28;20445;-83
2022/07/26 11:42:20;;;;;;;7.47;5.80;;;33.20;91.60;;;;;;4991675;28;20463;-83
2022/07/26 11:44:49;;;;;;;6.57;5.03;;;34.60;92.00;;;;;;4996227;28;20191;-82
2022/07/26 11:47:18;;;;;;;8.70;4.40;;;35.20;98.70;;;;;;4989820;28;20431;-82
2022/07/26 11:49:44;;;;;;;6.60;4.33;;;35.30;83.80;;;;;;4996054;28;20478;-82
2022/07/26 11:52:10;;;;;;;8.23;4.27;;;35.20;78.50;;;;;;4995229;28;20569;-81
2022/07/26 11:55:03;;;;;;;3.70;2.03;;;34.10;70.70;;;;;;4991244;28;20443;-81
2022/07/26 11:57:30;;;;;;;3.33;1.47;;;33.00;64.60;;;;;;4985984;28;20439;-81
2022/07/26 11:59:56;;;;;;;3.40;1.50;;;32.10;60.70;;;;;;4992740;28;20445;-81
2022/07/26 12:02:22;;;;;;;4.80;2.07;;;31.40;58.40;;;;;;4993939;28;20462;-80
2022/07/26 12:04:48;;;;;;;4.03;2.30;;;30.70;57.00;;;;;;4988868;28;20958;-81
2022/07/26 12:07:20;;;;;;;4.00;1.57;;;30.10;55.90;;;;;;4985936;28;20229;-81
2022/07/26 12:09:45;;;;;;;3.40;1.67;;;29.60;55.20;;;;;;4992938;28;20210;-81
2022/07/26 12:12:29;;;;;;;7.03;1.50;;;29.20;56.00;;;;;;4990297;28;20470;-81
2022/07/26 12:15:05;;;;;;;4.70;1.90;;;29.60;59.90;;;;;;4992555;28;20319;-81
2022/07/26 12:17:32;;;;;;;6.63;2.30;;;29.50;59.90;;;;;;4990559;28;20441;-81
2022/07/26 12:20:16;;;;;;;2.90;1.93;;;29.50;61.50;;;;;;4997500;28;20789;-81
2022/07/26 12:23:04;;;;;;;5.07;2.47;;;30.10;63.80;;;;;;4989369;28;20459;-81
2022/07/26 12:25:30;;;;;;;3.97;2.80;;;31.00;68.60;;;;;;4994228;28;20516;-81
2022/07/26 12:27:56;;;;;;;3.67;3.33;;;32.50;73.30;;;;;;4994813;28;20466;-81
2022/07/26 12:30:22;;;;;;;4.40;2.93;;;32.50;70.30;;;;;;4976042;28;20180;-81
2022/07/26 12:32:50;;;;;;;4.33;2.20;;;32.30;66.90;;;;;;4989136;28;20742;-81
2022/07/26 12:35:36;;;;;;;6.33;3.53;;;33.40;71.70;;;;;;4995553;28;20830;-81
2022/07/26 12:38:03;;;;;;;3.77;3.20;;;34.30;69.80;;;;;;4994328;28;20530;-81
2022/07/26 12:40:30;;;;;;;7.70;3.47;;;33.80;64.90;;;;;;4995377;28;20431;-81
2022/07/26 12:42:58;;;;;;;3.80;3.50;;;33.10;59.40;;;;;;4995193;28;20455;-81
2022/07/26 12:45:25;;;;;;;4.50;3.83;;;32.40;55.90;;;;;;4994973;28;20438;-80
2022/07/26 12:47:52;;;;;;;5.10;3.53;;;31.90;54.30;;;;;;4995742;28;20423;-81